sensor_id;sensor_type;location;lat;lon;timestamp;P1;durP1;ratioP1;P2;durP2;ratioP2
60726;SDS011;46577;49.004;12.120;2023-01-19T00:00:05;15.43;;;7.43;;
60726;SDS011;46577;49.004;12.120;2023-01-19T00:02:33;12.30;;;7.07;;
60726;SDS011;46577;49.004;12.120;2023-01-19T00:04:58;15.63;;;8.23;;
60726;SDS011;46577;49.004;12.120;2023-01-19T00:07:24;19.10;;;10.33;;
60726;SDS011;46577;49.004;12.120;2023-01-19T00:09:50;14.47;;;7.83;;
60726;SDS011;46577;49.004;12.120;2023-01-19T00:12:15;19.27;;;8.00;;
60726;SDS011;46577;49.004;12.120;2023-01-19T00:14:41;16.60;;;8.70;;
60726;SDS011;46577;49.004;12.120;2023-01-19T00:17:06;14.73;;;9.17;;
60726;SDS011;46577;49.004;12.120;2023-01-19T00:19:32;13.97;;;7.80;;
60726;SDS011;46577;49.004;12.120;2023-01-19T00:21:58;16.40;;;7.90;;
60726;SDS011;46577;49.004;12.120;2023-01-19T00:24:23;18.40;;;8.60;;
60726;SDS011;46577;49.004;12.120;2023-01-19T00:26:49;14.23;;;8.17;;
60726;SDS011;46577;49.004;12.120;2023-01-19T00:29:14;13.37;;;7.43;;
60726;SDS011;46577;49.004;12.120;2023-01-19T00:31:40;17.87;;;8.00;;
60726;SDS011;46577;49.004;12.120;2023-01-19T00:34:06;12.50;;;7.03;;
60726;SDS011;46577;49.004;12.120;2023-01-19T00:36:32;11.20;;;6.93;;
60726;SDS011;46577;49.004;12.120;2023-01-19T00:38:58;11.53;;;6.90;;
60726;SDS011;46577;49.004;12.120;2023-01-19T00:41:24;14.07;;;7.67;;
60726;SDS011;46577;49.004;12.120;2023-01-19T00:44:08;14.53;;;7.20;;
60726;SDS011;46577;49.004;12.120;2023-01-19T00:46:34;18.90;;;8.80;;
60726;SDS011;46577;49.004;12.120;2023-01-19T00:49:00;16.73;;;7.67;;
60726;SDS011;46577;49.004;12.120;2023-01-19T00:51:26;14.60;;;7.67;;
60726;SDS011;46577;49.004;12.120;2023-01-19T00:53:51;14.83;;;7.47;;
60726;SDS011;46577;49.004;12.120;2023-01-19T00:56:17;12.70;;;7.80;;
60726;SDS011;46577;49.004;12.120;2023-01-19T00:58:43;15.37;;;7.67;;
60726;SDS011;46577;49.004;12.120;2023-01-19T01:01:11;14.40;;;7.80;;
60726;SDS011;46577;49.004;12.120;2023-01-19T01:03:37;24.87;;;8.10;;
60726;SDS011;46577;49.004;12.120;2023-01-19T01:06:03;18.70;;;8.23;;
60726;SDS011;46577;49.004;12.120;2023-01-19T01:08:32;15.40;;;7.30;;
60726;SDS011;46577;49.004;12.120;2023-01-19T01:10:58;18.97;;;7.47;;
60726;SDS011;46577;49.004;12.120;2023-01-19T01:13:24;14.83;;;7.87;;
60726;SDS011;46577;49.004;12.120;2023-01-19T01:15:51;13.20;;;7.43;;
60726;SDS011;46577;49.004;12.120;2023-01-19T01:18:17;19.20;;;7.83;;
60726;SDS011;46577;49.004;12.120;2023-01-19T01:20:44;15.00;;;7.00;;
60726;SDS011;46577;49.004;12.120;2023-01-19T01:23:09;13.60;;;7.17;;
60726;SDS011;46577;49.004;12.120;2023-01-19T01:25:35;15.23;;;7.87;;
60726;SDS011;46577;49.004;12.120;2023-01-19T01:28:03;15.23;;;7.67;;
60726;SDS011;46577;49.004;12.120;2023-01-19T01:30:32;19.50;;;7.70;;
60726;SDS011;46577;49.004;12.120;2023-01-19T01:33:05;18.90;;;7.33;;
60726;SDS011;46577;49.004;12.120;2023-01-19T01:35:31;16.57;;;7.53;;
60726;SDS011;46577;49.004;12.120;2023-01-19T01:38:00;11.77;;;7.00;;
60726;SDS011;46577;49.004;12.120;2023-01-19T01:40:26;15.50;;;6.80;;
60726;SDS011;46577;49.004;12.120;2023-01-19T01:42:52;16.03;;;7.27;;
60726;SDS011;46577;49.004;12.120;2023-01-19T01:45:43;11.47;;;6.47;;
60726;SDS011;46577;49.004;12.120;2023-01-19T01:48:16;18.70;;;7.57;;
60726;SDS011;46577;49.004;12.120;2023-01-19T01:50:45;16.23;;;6.80;;
60726;SDS011;46577;49.004;12.120;2023-01-19T01:53:37;21.67;;;8.97;;
60726;SDS011;46577;49.004;12.120;2023-01-19T01:56:06;11.00;;;6.73;;
60726;SDS011;46577;49.004;12.120;2023-01-19T01:58:37;13.30;;;8.10;;
60726;SDS011;46577;49.004;12.120;2023-01-19T02:01:04;12.37;;;7.07;;
60726;SDS011;46577;49.004;12.120;2023-01-19T02:03:49;12.67;;;7.47;;
60726;SDS011;46577;49.004;12.120;2023-01-19T02:06:18;15.47;;;8.10;;
60726;SDS011;46577;49.004;12.120;2023-01-19T02:11:38;16.63;;;6.33;;
60726;SDS011;46577;49.004;12.120;2023-01-19T02:14:23;20.30;;;7.60;;
60726;SDS011;46577;49.004;12.120;2023-01-19T02:16:48;14.53;;;7.17;;
60726;SDS011;46577;49.004;12.120;2023-01-19T02:19:21;16.43;;;9.13;;
60726;SDS011;46577;49.004;12.120;2023-01-19T02:21:53;17.90;;;8.10;;
60726;SDS011;46577;49.004;12.120;2023-01-19T02:24:26;15.63;;;7.30;;
60726;SDS011;46577;49.004;12.120;2023-01-19T02:26:53;13.53;;;7.57;;
60726;SDS011;46577;49.004;12.120;2023-01-19T02:29:21;18.80;;;8.20;;
60726;SDS011;46577;49.004;12.120;2023-01-19T02:31:49;10.87;;;7.37;;
60726;SDS011;46577;49.004;12.120;2023-01-19T02:34:16;19.07;;;9.50;;
60726;SDS011;46577;49.004;12.120;2023-01-19T02:36:53;14.30;;;8.03;;
60726;SDS011;46577;49.004;12.120;2023-01-19T02:39:27;16.17;;;8.07;;
60726;SDS011;46577;49.004;12.120;2023-01-19T02:42:10;14.33;;;7.13;;
60726;SDS011;46577;49.004;12.120;2023-01-19T02:44:39;14.67;;;7.77;;
60726;SDS011;46577;49.004;12.120;2023-01-19T02:47:10;20.23;;;7.73;;
60726;SDS011;46577;49.004;12.120;2023-01-19T02:49:37;16.23;;;8.10;;
60726;SDS011;46577;49.004;12.120;2023-01-19T02:52:02;20.40;;;8.53;;
60726;SDS011;46577;49.004;12.120;2023-01-19T02:54:35;12.67;;;7.20;;
60726;SDS011;46577;49.004;12.120;2023-01-19T03:05:45;20.93;;;8.27;;
60726;SDS011;46577;49.004;12.120;2023-01-19T03:08:30;21.73;;;8.90;;
60726;SDS011;46577;49.004;12.120;2023-01-19T03:11:02;15.83;;;8.30;;
60726;SDS011;46577;49.004;12.120;2023-01-19T03:13:50;17.07;;;8.40;;
60726;SDS011;46577;49.004;12.120;2023-01-19T03:19:22;17.10;;;7.87;;
60726;SDS011;46577;49.004;12.120;2023-01-19T03:21:53;18.80;;;7.90;;
60726;SDS011;46577;49.004;12.120;2023-01-19T03:24:23;12.33;;;7.17;;
60726;SDS011;46577;49.004;12.120;2023-01-19T03:26:53;15.23;;;8.43;;
60726;SDS011;46577;49.004;12.120;2023-01-19T03:29:29;13.60;;;7.70;;
60726;SDS011;46577;49.004;12.120;2023-01-19T03:31:59;17.60;;;8.20;;
60726;SDS011;46577;49.004;12.120;2023-01-19T03:34:33;18.43;;;8.10;;
60726;SDS011;46577;49.004;12.120;2023-01-19T03:37:01;22.93;;;8.50;;
60726;SDS011;46577;49.004;12.120;2023-01-19T03:39:29;24.63;;;9.10;;
60726;SDS011;46577;49.004;12.120;2023-01-19T03:41:56;21.90;;;8.83;;
60726;SDS011;46577;49.004;12.120;2023-01-19T03:44:26;14.20;;;7.80;;
60726;SDS011;46577;49.004;12.120;2023-01-19T03:46:54;13.63;;;7.20;;
60726;SDS011;46577;49.004;12.120;2023-01-19T03:49:22;13.50;;;8.10;;
60726;SDS011;46577;49.004;12.120;2023-01-19T03:51:48;16.07;;;8.20;;
60726;SDS011;46577;49.004;12.120;2023-01-19T03:54:13;14.50;;;8.67;;
60726;SDS011;46577;49.004;12.120;2023-01-19T03:56:39;18.67;;;8.23;;
60726;SDS011;46577;49.004;12.120;2023-01-19T03:59:06;18.57;;;9.80;;
60726;SDS011;46577;49.004;12.120;2023-01-19T04:01:32;21.80;;;8.77;;
60726;SDS011;46577;49.004;12.120;2023-01-19T04:03:57;16.47;;;8.67;;
60726;SDS011;46577;49.004;12.120;2023-01-19T04:06:23;20.90;;;8.83;;
60726;SDS011;46577;49.004;12.120;2023-01-19T04:08:49;19.50;;;9.07;;
60726;SDS011;46577;49.004;12.120;2023-01-19T04:11:15;20.50;;;8.73;;
60726;SDS011;46577;49.004;12.120;2023-01-19T04:13:41;16.87;;;8.03;;
60726;SDS011;46577;49.004;12.120;2023-01-19T04:16:08;13.97;;;8.70;;
60726;SDS011;46577;49.004;12.120;2023-01-19T04:18:35;15.13;;;9.03;;
60726;SDS011;46577;49.004;12.120;2023-01-19T04:21:02;17.30;;;8.23;;
60726;SDS011;46577;49.004;12.120;2023-01-19T04:23:30;16.70;;;9.03;;
60726;SDS011;46577;49.004;12.120;2023-01-19T04:25:59;11.93;;;7.93;;
60726;SDS011;46577;49.004;12.120;2023-01-19T04:28:27;21.53;;;9.23;;
60726;SDS011;46577;49.004;12.120;2023-01-19T04:30:52;21.70;;;9.50;;
60726;SDS011;46577;49.004;12.120;2023-01-19T04:33:18;13.30;;;7.27;;
60726;SDS011;46577;49.004;12.120;2023-01-19T04:35:45;17.80;;;8.17;;
60726;SDS011;46577;49.004;12.120;2023-01-19T04:38:11;20.90;;;8.10;;
60726;SDS011;46577;49.004;12.120;2023-01-19T04:40:37;17.37;;;8.40;;
60726;SDS011;46577;49.004;12.120;2023-01-19T04:43:02;16.40;;;9.00;;
60726;SDS011;46577;49.004;12.120;2023-01-19T04:45:28;19.30;;;8.77;;
60726;SDS011;46577;49.004;12.120;2023-01-19T04:47:54;16.50;;;7.87;;
60726;SDS011;46577;49.004;12.120;2023-01-19T04:50:20;15.70;;;8.70;;
60726;SDS011;46577;49.004;12.120;2023-01-19T04:52:45;15.20;;;8.00;;
60726;SDS011;46577;49.004;12.120;2023-01-19T04:55:11;17.73;;;8.97;;
60726;SDS011;46577;49.004;12.120;2023-01-19T04:57:37;15.50;;;8.10;;
60726;SDS011;46577;49.004;12.120;2023-01-19T05:00:03;14.10;;;7.80;;
60726;SDS011;46577;49.004;12.120;2023-01-19T05:02:33;21.10;;;9.10;;
60726;SDS011;46577;49.004;12.120;2023-01-19T05:04:59;23.77;;;9.20;;
60726;SDS011;46577;49.004;12.120;2023-01-19T05:07:25;16.73;;;9.40;;
60726;SDS011;46577;49.004;12.120;2023-01-19T05:09:51;20.37;;;9.70;;
60726;SDS011;46577;49.004;12.120;2023-01-19T05:12:17;17.93;;;10.60;;
60726;SDS011;46577;49.004;12.120;2023-01-19T05:14:43;25.10;;;10.70;;
60726;SDS011;46577;49.004;12.120;2023-01-19T05:17:09;16.23;;;10.10;;
60726;SDS011;46577;49.004;12.120;2023-01-19T05:19:35;20.47;;;11.13;;
60726;SDS011;46577;49.004;12.120;2023-01-19T05:22:01;19.53;;;9.87;;
60726;SDS011;46577;49.004;12.120;2023-01-19T05:24:28;18.93;;;10.03;;
60726;SDS011;46577;49.004;12.120;2023-01-19T05:26:53;27.33;;;8.73;;
60726;SDS011;46577;49.004;12.120;2023-01-19T05:29:19;21.70;;;9.73;;
60726;SDS011;46577;49.004;12.120;2023-01-19T05:31:45;20.17;;;10.53;;
60726;SDS011;46577;49.004;12.120;2023-01-19T05:34:11;35.87;;;11.13;;
60726;SDS011;46577;49.004;12.120;2023-01-19T05:36:38;20.20;;;10.30;;
60726;SDS011;46577;49.004;12.120;2023-01-19T05:39:04;16.20;;;9.50;;
60726;SDS011;46577;49.004;12.120;2023-01-19T05:41:30;24.17;;;10.70;;
60726;SDS011;46577;49.004;12.120;2023-01-19T05:43:55;22.00;;;10.10;;
60726;SDS011;46577;49.004;12.120;2023-01-19T05:46:22;15.70;;;8.80;;
60726;SDS011;46577;49.004;12.120;2023-01-19T05:48:48;22.70;;;10.60;;
60726;SDS011;46577;49.004;12.120;2023-01-19T05:51:14;22.17;;;9.50;;
60726;SDS011;46577;49.004;12.120;2023-01-19T05:53:39;20.77;;;10.93;;
60726;SDS011;46577;49.004;12.120;2023-01-19T05:56:06;18.63;;;9.80;;
60726;SDS011;46577;49.004;12.120;2023-01-19T05:58:33;22.17;;;10.60;;
60726;SDS011;46577;49.004;12.120;2023-01-19T06:01:07;19.03;;;10.57;;
60726;SDS011;46577;49.004;12.120;2023-01-19T06:03:34;18.70;;;10.00;;
60726;SDS011;46577;49.004;12.120;2023-01-19T06:06:01;20.83;;;9.80;;
60726;SDS011;46577;49.004;12.120;2023-01-19T06:08:28;21.43;;;10.00;;
60726;SDS011;46577;49.004;12.120;2023-01-19T06:10:54;23.97;;;11.33;;
60726;SDS011;46577;49.004;12.120;2023-01-19T06:13:20;19.93;;;11.20;;
60726;SDS011;46577;49.004;12.120;2023-01-19T06:15:46;18.60;;;9.70;;
60726;SDS011;46577;49.004;12.120;2023-01-19T06:18:12;19.53;;;9.90;;
60726;SDS011;46577;49.004;12.120;2023-01-19T06:20:41;18.73;;;10.27;;
60726;SDS011;46577;49.004;12.120;2023-01-19T06:23:06;24.40;;;9.10;;
60726;SDS011;46577;49.004;12.120;2023-01-19T06:25:32;28.13;;;11.27;;
60726;SDS011;46577;49.004;12.120;2023-01-19T06:27:58;17.80;;;9.43;;
60726;SDS011;46577;49.004;12.120;2023-01-19T06:30:24;33.00;;;12.00;;
60726;SDS011;46577;49.004;12.120;2023-01-19T06:32:51;22.63;;;10.00;;
60726;SDS011;46577;49.004;12.120;2023-01-19T06:35:17;22.43;;;10.57;;
60726;SDS011;46577;49.004;12.120;2023-01-19T06:37:43;22.20;;;9.67;;
60726;SDS011;46577;49.004;12.120;2023-01-19T06:40:08;19.33;;;9.90;;
60726;SDS011;46577;49.004;12.120;2023-01-19T06:42:35;24.93;;;10.90;;
60726;SDS011;46577;49.004;12.120;2023-01-19T06:45:01;16.27;;;9.83;;
60726;SDS011;46577;49.004;12.120;2023-01-19T06:47:27;28.97;;;10.80;;
60726;SDS011;46577;49.004;12.120;2023-01-19T06:49:53;29.50;;;11.77;;
60726;SDS011;46577;49.004;12.120;2023-01-19T06:52:18;17.63;;;10.40;;
60726;SDS011;46577;49.004;12.120;2023-01-19T06:54:44;19.50;;;9.87;;
60726;SDS011;46577;49.004;12.120;2023-01-19T06:57:10;22.30;;;9.80;;
60726;SDS011;46577;49.004;12.120;2023-01-19T06:59:37;25.27;;;11.20;;
60726;SDS011;46577;49.004;12.120;2023-01-19T07:02:03;19.47;;;10.30;;
60726;SDS011;46577;49.004;12.120;2023-01-19T07:04:29;32.10;;;11.40;;
60726;SDS011;46577;49.004;12.120;2023-01-19T07:06:55;20.93;;;10.73;;
60726;SDS011;46577;49.004;12.120;2023-01-19T07:09:20;20.73;;;10.30;;
60726;SDS011;46577;49.004;12.120;2023-01-19T07:11:46;26.20;;;12.07;;
60726;SDS011;46577;49.004;12.120;2023-01-19T07:14:13;27.13;;;10.90;;
60726;SDS011;46577;49.004;12.120;2023-01-19T07:16:38;20.93;;;10.80;;
60726;SDS011;46577;49.004;12.120;2023-01-19T07:19:04;26.40;;;11.63;;
60726;SDS011;46577;49.004;12.120;2023-01-19T07:21:30;19.97;;;10.53;;
60726;SDS011;46577;49.004;12.120;2023-01-19T07:23:55;21.87;;;12.77;;
60726;SDS011;46577;49.004;12.120;2023-01-19T07:26:21;24.50;;;11.10;;
60726;SDS011;46577;49.004;12.120;2023-01-19T07:28:49;23.97;;;11.53;;
60726;SDS011;46577;49.004;12.120;2023-01-19T07:31:18;30.47;;;10.07;;
60726;SDS011;46577;49.004;12.120;2023-01-19T07:33:44;19.40;;;10.23;;
60726;SDS011;46577;49.004;12.120;2023-01-19T07:36:10;24.23;;;10.73;;
60726;SDS011;46577;49.004;12.120;2023-01-19T07:38:36;19.47;;;10.03;;
60726;SDS011;46577;49.004;12.120;2023-01-19T07:41:02;22.30;;;9.50;;
60726;SDS011;46577;49.004;12.120;2023-01-19T07:43:29;19.40;;;9.20;;
60726;SDS011;46577;49.004;12.120;2023-01-19T07:45:55;17.73;;;10.30;;
60726;SDS011;46577;49.004;12.120;2023-01-19T07:48:25;23.30;;;9.20;;
60726;SDS011;46577;49.004;12.120;2023-01-19T07:50:51;18.83;;;10.20;;
60726;SDS011;46577;49.004;12.120;2023-01-19T07:53:17;25.10;;;10.37;;
60726;SDS011;46577;49.004;12.120;2023-01-19T07:55:43;20.40;;;9.80;;
60726;SDS011;46577;49.004;12.120;2023-01-19T07:58:08;18.20;;;9.27;;
60726;SDS011;46577;49.004;12.120;2023-01-19T08:00:35;16.60;;;9.33;;
60726;SDS011;46577;49.004;12.120;2023-01-19T08:03:02;20.17;;;9.60;;
60726;SDS011;46577;49.004;12.120;2023-01-19T08:05:28;20.87;;;11.27;;
60726;SDS011;46577;49.004;12.120;2023-01-19T08:07:55;23.77;;;8.87;;
60726;SDS011;46577;49.004;12.120;2023-01-19T08:10:22;17.27;;;9.83;;
60726;SDS011;46577;49.004;12.120;2023-01-19T08:12:51;16.83;;;9.40;;
60726;SDS011;46577;49.004;12.120;2023-01-19T08:15:20;18.60;;;9.73;;
60726;SDS011;46577;49.004;12.120;2023-01-19T08:17:58;15.37;;;9.10;;
60726;SDS011;46577;49.004;12.120;2023-01-19T08:20:29;15.73;;;8.87;;
60726;SDS011;46577;49.004;12.120;2023-01-19T08:22:56;18.13;;;9.07;;
60726;SDS011;46577;49.004;12.120;2023-01-19T08:25:47;16.77;;;8.83;;
60726;SDS011;46577;49.004;12.120;2023-01-19T08:28:13;18.70;;;9.37;;
60726;SDS011;46577;49.004;12.120;2023-01-19T08:30:40;21.37;;;9.07;;
60726;SDS011;46577;49.004;12.120;2023-01-19T08:33:08;17.17;;;8.63;;
60726;SDS011;46577;49.004;12.120;2023-01-19T08:35:34;16.47;;;9.43;;
60726;SDS011;46577;49.004;12.120;2023-01-19T08:38:01;16.47;;;8.63;;
60726;SDS011;46577;49.004;12.120;2023-01-19T08:40:32;13.63;;;8.67;;
60726;SDS011;46577;49.004;12.120;2023-01-19T08:43:04;15.03;;;8.43;;
60726;SDS011;46577;49.004;12.120;2023-01-19T08:45:32;20.13;;;9.00;;
60726;SDS011;46577;49.004;12.120;2023-01-19T08:48:03;11.47;;;7.20;;
60726;SDS011;46577;49.004;12.120;2023-01-19T08:50:31;13.83;;;8.03;;
60726;SDS011;46577;49.004;12.120;2023-01-19T08:52:57;14.07;;;8.20;;
60726;SDS011;46577;49.004;12.120;2023-01-19T08:55:24;16.60;;;7.70;;
60726;SDS011;46577;49.004;12.120;2023-01-19T08:57:51;16.93;;;7.67;;
60726;SDS011;46577;49.004;12.120;2023-01-19T09:00:17;14.53;;;7.50;;
60726;SDS011;46577;49.004;12.120;2023-01-19T09:02:44;14.10;;;7.63;;
60726;SDS011;46577;49.004;12.120;2023-01-19T09:05:10;11.23;;;7.10;;
60726;SDS011;46577;49.004;12.120;2023-01-19T09:07:36;14.27;;;7.07;;
60726;SDS011;46577;49.004;12.120;2023-01-19T09:10:03;15.53;;;8.20;;
60726;SDS011;46577;49.004;12.120;2023-01-19T09:12:30;14.37;;;7.80;;
60726;SDS011;46577;49.004;12.120;2023-01-19T09:14:55;14.40;;;7.93;;
60726;SDS011;46577;49.004;12.120;2023-01-19T09:17:21;13.17;;;7.83;;
60726;SDS011;46577;49.004;12.120;2023-01-19T09:19:47;15.03;;;7.47;;
60726;SDS011;46577;49.004;12.120;2023-01-19T09:22:12;11.27;;;7.43;;
60726;SDS011;46577;49.004;12.120;2023-01-19T09:24:38;14.77;;;7.60;;
60726;SDS011;46577;49.004;12.120;2023-01-19T09:27:04;10.30;;;6.40;;
60726;SDS011;46577;49.004;12.120;2023-01-19T09:29:29;9.30;;;7.00;;
60726;SDS011;46577;49.004;12.120;2023-01-19T09:31:55;8.60;;;6.23;;
60726;SDS011;46577;49.004;12.120;2023-01-19T09:34:21;14.07;;;7.80;;
60726;SDS011;46577;49.004;12.120;2023-01-19T09:36:49;14.23;;;7.00;;
60726;SDS011;46577;49.004;12.120;2023-01-19T09:39:18;9.87;;;6.77;;
60726;SDS011;46577;49.004;12.120;2023-01-19T09:41:45;12.10;;;8.03;;
60726;SDS011;46577;49.004;12.120;2023-01-19T09:44:19;10.40;;;7.13;;
60726;SDS011;46577;49.004;12.120;2023-01-19T09:46:58;13.20;;;7.00;;
60726;SDS011;46577;49.004;12.120;2023-01-19T09:49:32;13.73;;;7.17;;
60726;SDS011;46577;49.004;12.120;2023-01-19T09:52:04;12.53;;;6.70;;
60726;SDS011;46577;49.004;12.120;2023-01-19T09:54:40;17.67;;;6.50;;
60726;SDS011;46577;49.004;12.120;2023-01-19T09:57:14;12.90;;;6.87;;
60726;SDS011;46577;49.004;12.120;2023-01-19T09:59:40;11.13;;;5.53;;
60726;SDS011;46577;49.004;12.120;2023-01-19T10:10:11;11.17;;;6.27;;
60726;SDS011;46577;49.004;12.120;2023-01-19T10:18:25;10.40;;;6.10;;
60726;SDS011;46577;49.004;12.120;2023-01-19T10:21:00;10.43;;;6.30;;
60726;SDS011;46577;49.004;12.120;2023-01-19T10:23:48;18.50;;;6.10;;
60726;SDS011;46577;49.004;12.120;2023-01-19T10:26:18;8.87;;;6.43;;
60726;SDS011;46577;49.004;12.120;2023-01-19T10:28:48;8.67;;;6.17;;
60726;SDS011;46577;49.004;12.120;2023-01-19T10:31:38;7.90;;;5.87;;
60726;SDS011;46577;49.004;12.120;2023-01-19T10:34:07;10.10;;;6.20;;
60726;SDS011;46577;49.004;12.120;2023-01-19T10:36:42;10.70;;;6.90;;
60726;SDS011;46577;49.004;12.120;2023-01-19T10:39:10;12.23;;;7.23;;
60726;SDS011;46577;49.004;12.120;2023-01-19T10:44:06;14.33;;;8.17;;
60726;SDS011;46577;49.004;12.120;2023-01-19T10:46:44;9.53;;;6.90;;
60726;SDS011;46577;49.004;12.120;2023-01-19T10:51:58;12.23;;;7.40;;
60726;SDS011;46577;49.004;12.120;2023-01-19T10:54:25;7.30;;;6.13;;
60726;SDS011;46577;49.004;12.120;2023-01-19T10:56:55;10.37;;;5.70;;
60726;SDS011;46577;49.004;12.120;2023-01-19T10:59:31;12.00;;;5.70;;
60726;SDS011;46577;49.004;12.120;2023-01-19T11:02:18;12.23;;;7.20;;
60726;SDS011;46577;49.004;12.120;2023-01-19T11:04:50;16.70;;;7.23;;
60726;SDS011;46577;49.004;12.120;2023-01-19T11:07:19;8.07;;;5.73;;
60726;SDS011;46577;49.004;12.120;2023-01-19T11:09:45;8.10;;;5.43;;
60726;SDS011;46577;49.004;12.120;2023-01-19T11:12:21;11.43;;;6.10;;
60726;SDS011;46577;49.004;12.120;2023-01-19T11:14:49;9.57;;;6.40;;
60726;SDS011;46577;49.004;12.120;2023-01-19T11:17:16;7.57;;;6.03;;
60726;SDS011;46577;49.004;12.120;2023-01-19T11:19:51;16.10;;;6.53;;
60726;SDS011;46577;49.004;12.120;2023-01-19T11:22:23;9.13;;;6.83;;
60726;SDS011;46577;49.004;12.120;2023-01-19T11:24:51;12.10;;;7.00;;
60726;SDS011;46577;49.004;12.120;2023-01-19T11:27:22;7.83;;;5.67;;
60726;SDS011;46577;49.004;12.120;2023-01-19T11:30:12;8.33;;;6.30;;
60726;SDS011;46577;49.004;12.120;2023-01-19T11:32:49;10.73;;;6.00;;
60726;SDS011;46577;49.004;12.120;2023-01-19T11:38:09;8.50;;;5.80;;
60726;SDS011;46577;49.004;12.120;2023-01-19T11:40:41;8.87;;;5.97;;
60726;SDS011;46577;49.004;12.120;2023-01-19T11:43:16;11.17;;;5.90;;
60726;SDS011;46577;49.004;12.120;2023-01-19T11:45:41;6.97;;;5.43;;
60726;SDS011;46577;49.004;12.120;2023-01-19T11:48:09;7.20;;;5.90;;
60726;SDS011;46577;49.004;12.120;2023-01-19T11:50:56;8.80;;;6.10;;
60726;SDS011;46577;49.004;12.120;2023-01-19T11:53:27;8.00;;;5.83;;
60726;SDS011;46577;49.004;12.120;2023-01-19T11:58:32;8.40;;;5.23;;
60726;SDS011;46577;49.004;12.120;2023-01-19T12:01:05;9.00;;;5.73;;
60726;SDS011;46577;49.004;12.120;2023-01-19T12:03:45;7.53;;;5.60;;
60726;SDS011;46577;49.004;12.120;2023-01-19T12:06:28;7.50;;;5.73;;
60726;SDS011;46577;49.004;12.120;2023-01-19T12:09:18;9.07;;;5.77;;
60726;SDS011;46577;49.004;12.120;2023-01-19T12:11:55;12.03;;;5.90;;
60726;SDS011;46577;49.004;12.120;2023-01-19T12:14:22;10.30;;;5.60;;
60726;SDS011;46577;49.004;12.120;2023-01-19T12:16:53;8.27;;;5.20;;
60726;SDS011;46577;49.004;12.120;2023-01-19T12:19:26;9.27;;;5.40;;
60726;SDS011;46577;49.004;12.120;2023-01-19T12:22:04;8.30;;;5.00;;
60726;SDS011;46577;49.004;12.120;2023-01-19T12:24:33;8.90;;;5.40;;
60726;SDS011;46577;49.004;12.120;2023-01-19T12:27:06;8.80;;;5.17;;
60726;SDS011;46577;49.004;12.120;2023-01-19T12:29:43;6.93;;;4.77;;
60726;SDS011;46577;49.004;12.120;2023-01-19T12:34:40;11.70;;;6.53;;
60726;SDS011;46577;49.004;12.120;2023-01-19T12:39:51;10.70;;;6.00;;
60726;SDS011;46577;49.004;12.120;2023-01-19T12:42:17;6.07;;;4.77;;
60726;SDS011;46577;49.004;12.120;2023-01-19T12:44:44;8.30;;;5.33;;
60726;SDS011;46577;49.004;12.120;2023-01-19T12:49:43;6.03;;;4.37;;
60726;SDS011;46577;49.004;12.120;2023-01-19T12:52:30;6.37;;;4.20;;
60726;SDS011;46577;49.004;12.120;2023-01-19T12:57:50;10.30;;;4.27;;
60726;SDS011;46577;49.004;12.120;2023-01-19T13:02:49;7.80;;;3.97;;
60726;SDS011;46577;49.004;12.120;2023-01-19T13:13:21;11.90;;;4.83;;
60726;SDS011;46577;49.004;12.120;2023-01-19T13:15:48;8.00;;;4.80;;
60726;SDS011;46577;49.004;12.120;2023-01-19T13:21:48;8.27;;;4.63;;
60726;SDS011;46577;49.004;12.120;2023-01-19T13:23:54;10.07;;;5.27;;
60726;SDS011;46577;49.004;12.120;2023-01-19T13:26:31;9.77;;;4.27;;
60726;SDS011;46577;49.004;12.120;2023-01-19T13:29:10;9.77;;;4.30;;
60726;SDS011;46577;49.004;12.120;2023-01-19T13:31:39;7.27;;;4.50;;
60726;SDS011;46577;49.004;12.120;2023-01-19T13:34:11;9.07;;;4.53;;
60726;SDS011;46577;49.004;12.120;2023-01-19T13:36:51;8.97;;;4.93;;
60726;SDS011;46577;49.004;12.120;2023-01-19T13:39:19;6.43;;;4.33;;
60726;SDS011;46577;49.004;12.120;2023-01-19T13:41:51;7.70;;;4.70;;
60726;SDS011;46577;49.004;12.120;2023-01-19T13:46:47;8.87;;;3.93;;
60726;SDS011;46577;49.004;12.120;2023-01-19T13:54:53;10.00;;;4.60;;
60726;SDS011;46577;49.004;12.120;2023-01-19T14:02:39;9.80;;;5.10;;
60726;SDS011;46577;49.004;12.120;2023-01-19T14:13:24;8.47;;;5.30;;
60726;SDS011;46577;49.004;12.120;2023-01-19T14:15:57;13.93;;;6.43;;
60726;SDS011;46577;49.004;12.120;2023-01-19T14:18:28;9.37;;;5.73;;
60726;SDS011;46577;49.004;12.120;2023-01-19T14:21:03;14.53;;;5.93;;
60726;SDS011;46577;49.004;12.120;2023-01-19T14:29:17;11.37;;;7.03;;
60726;SDS011;46577;49.004;12.120;2023-01-19T14:37:18;16.23;;;7.47;;
60726;SDS011;46577;49.004;12.120;2023-01-19T14:39:59;14.93;;;7.70;;
60726;SDS011;46577;49.004;12.120;2023-01-19T14:42:29;11.93;;;6.37;;
60726;SDS011;46577;49.004;12.120;2023-01-19T14:44:58;11.17;;;6.60;;
60726;SDS011;46577;49.004;12.120;2023-01-19T14:47:36;18.73;;;6.53;;
60726;SDS011;46577;49.004;12.120;2023-01-19T14:50:05;12.30;;;7.90;;
60726;SDS011;46577;49.004;12.120;2023-01-19T14:52:42;11.67;;;6.70;;
60726;SDS011;46577;49.004;12.120;2023-01-19T14:55:19;10.63;;;6.73;;
60726;SDS011;46577;49.004;12.120;2023-01-19T14:58:06;20.80;;;9.77;;
60726;SDS011;46577;49.004;12.120;2023-01-19T15:00:36;10.90;;;6.03;;
60726;SDS011;46577;49.004;12.120;2023-01-19T15:03:01;10.87;;;6.70;;
60726;SDS011;46577;49.004;12.120;2023-01-19T15:05:30;9.80;;;5.97;;
60726;SDS011;46577;49.004;12.120;2023-01-19T15:07:56;14.90;;;7.70;;
60726;SDS011;46577;49.004;12.120;2023-01-19T15:10:22;15.10;;;8.07;;
60726;SDS011;46577;49.004;12.120;2023-01-19T15:12:49;11.60;;;7.03;;
60726;SDS011;46577;49.004;12.120;2023-01-19T15:15:17;19.23;;;7.83;;
60726;SDS011;46577;49.004;12.120;2023-01-19T15:17:49;16.10;;;7.60;;
60726;SDS011;46577;49.004;12.120;2023-01-19T15:20:16;19.47;;;8.40;;
60726;SDS011;46577;49.004;12.120;2023-01-19T15:22:44;16.60;;;7.90;;
60726;SDS011;46577;49.004;12.120;2023-01-19T15:25:13;14.67;;;7.20;;
60726;SDS011;46577;49.004;12.120;2023-01-19T15:27:41;17.60;;;7.90;;
60726;SDS011;46577;49.004;12.120;2023-01-19T15:30:20;13.60;;;6.40;;
60726;SDS011;46577;49.004;12.120;2023-01-19T15:32:47;16.53;;;8.20;;
60726;SDS011;46577;49.004;12.120;2023-01-19T15:37:43;25.57;;;7.60;;
60726;SDS011;46577;49.004;12.120;2023-01-19T15:40:09;15.63;;;6.87;;
60726;SDS011;46577;49.004;12.120;2023-01-19T15:42:35;16.57;;;7.80;;
60726;SDS011;46577;49.004;12.120;2023-01-19T15:45:01;21.63;;;8.90;;
60726;SDS011;46577;49.004;12.120;2023-01-19T15:47:27;17.43;;;8.27;;
60726;SDS011;46577;49.004;12.120;2023-01-19T15:49:52;16.80;;;6.20;;
60726;SDS011;46577;49.004;12.120;2023-01-19T15:52:18;12.33;;;7.33;;
60726;SDS011;46577;49.004;12.120;2023-01-19T15:54:44;32.57;;;9.90;;
60726;SDS011;46577;49.004;12.120;2023-01-19T15:57:10;19.13;;;9.20;;
60726;SDS011;46577;49.004;12.120;2023-01-19T15:59:35;18.90;;;7.50;;
60726;SDS011;46577;49.004;12.120;2023-01-19T16:02:01;13.80;;;7.60;;
60726;SDS011;46577;49.004;12.120;2023-01-19T16:04:27;17.00;;;7.47;;
60726;SDS011;46577;49.004;12.120;2023-01-19T16:06:53;11.50;;;6.60;;
60726;SDS011;46577;49.004;12.120;2023-01-19T16:09:18;13.67;;;7.10;;